Time;durP1;ratioP1;P1;durP2;ratioP2;P2;SDS_P1;SDS_P2;PMS_P1;PMS_P2;Temp;Humidity;BMP_temperature;BMP_pressure;BME280_temperature;BME280_humidity;BME280_pressure;Samples;Min_cycle;Max_cycle;Signal;HPM_P1;HPM_P2
2021/12/28 00:01:12;;;;;;;;;;;;;;;7.71;100.00;99426.78;5027591;28;20276;-74
2021/12/28 00:03:40;;;;;;;;;;;;;;;7.79;100.00;99420.28;4995968;28;19972;-73
2021/12/28 00:06:05;;;;;;;;;;;;;;;7.70;100.00;99419.88;4998359;28;20369;-73
2021/12/28 00:08:31;;;;;;;;;;;;;;;7.69;100.00;99422.59;5010003;28;19967;-80
2021/12/28 00:10:57;;;;;;;;;;;;;;;7.78;100.00;99422.06;5004009;28;19924;-77
2021/12/28 00:13:23;;;;;;;;;;;;;;;7.74;100.00;99420.53;4999006;28;20482;-76
2021/12/28 00:18:29;;;;;;;;;;;;;;;7.86;100.00;99408.53;5005721;28;19924;-78
2021/12/28 00:20:56;;;;;;;;;;;;;;;7.81;100.00;99418.41;5000946;28;20000;-74
2021/12/28 00:23:24;;;;;;;;;;;;;;;7.71;100.00;99418.13;5003845;28;19918;-76
2021/12/28 00:25:51;;;;;;;;;;;;;;;7.74;100.00;99420.53;4998243;28;19917;-74
2021/12/28 00:28:17;;;;;;;;;;;;;;;7.76;100.00;99421.28;5004422;28;19917;-74
2021/12/28 00:30:43;;;;;;;;;;;;;;;7.75;100.00;99409.16;5015057;28;19924;-75
2021/12/28 00:33:09;;;;;;;;;;;;;;;7.79;100.00;99407.19;4990090;28;20804;-77
2021/12/28 00:35:35;;;;;;;;;;;;;;;7.71;100.00;99403.25;5000896;28;19969;-77
2021/12/28 00:38:01;;;;;;;;;;;;;;;7.80;100.00;99406.25;5007261;28;19941;-74
2021/12/28 00:40:27;;;;;;;;;;;;;;;7.78;100.00;99403.75;5003610;28;19976;-72
2021/12/28 00:42:52;;;;;;;;;;;;;;;7.76;100.00;99397.75;4988723;28;19918;-74
2021/12/28 00:45:18;;;;;;;;;;;;;;;7.79;100.00;99388.91;4998509;28;19921;-73
2021/12/28 00:47:43;;;;;;;;;;;;;;;7.86;100.00;99388.44;4993892;28;19918;-74
2021/12/28 00:50:10;;;;;;;;;;;;;;;7.94;100.00;99384.56;4994115;28;20374;-73
2021/12/28 00:52:35;;;;;;;;;;;;;;;7.87;100.00;99387.53;5003832;28;19993;-74
2021/12/28 00:55:01;;;;;;;;;;;;;;;7.81;100.00;99392.25;5032397;28;20546;-72
2021/12/28 00:57:26;;;;;;;;;;;;;;;7.80;100.00;99394.06;5006969;28;19929;-73
2021/12/28 00:59:52;;;;;;;;;;;;;;;7.75;100.00;99396.06;5001528;28;19924;-73
2021/12/28 01:02:17;;;;;;;;;;;;;;;7.79;100.00;99391.50;5006287;28;19917;-73
2021/12/28 01:04:42;;;;;;;;;;;;;;;7.86;100.00;99393.69;5006345;28;19922;-78
2021/12/28 01:07:07;;;;;;;;;;;;;;;7.81;100.00;99394.88;5032447;28;19944;-76
2021/12/28 01:09:33;;;;;;;;;;;;;;;7.79;100.00;99386.28;5000157;28;20345;-78
2021/12/28 01:11:59;;;;;;;;;;;;;;;7.73;100.00;99387.47;4996479;28;19948;-73
2021/12/28 01:14:24;;;;;;;;;;;;;;;7.74;100.00;99382.19;4999754;28;19953;-77
2021/12/28 01:16:50;;;;;;;;;;;;;;;7.79;100.00;99375.81;5003845;28;20394;-71
2021/12/28 01:19:15;;;;;;;;;;;;;;;7.80;100.00;99383.59;4998878;28;20017;-72
2021/12/28 01:21:40;;;;;;;;;;;;;;;7.80;100.00;99380.13;4998752;28;19957;-76
2021/12/28 01:24:06;;;;;;;;;;;;;;;7.81;100.00;99380.06;4995921;28;20350;-72
2021/12/28 01:26:31;;;;;;;;;;;;;;;7.69;100.00;99375.53;5001386;28;19929;-77
2021/12/28 01:28:56;;;;;;;;;;;;;;;7.78;100.00;99361.91;5004652;28;19927;-76
2021/12/28 01:31:22;;;;;;;;;;;;;;;7.83;100.00;99366.88;5003583;28;19925;-79
2021/12/28 01:33:47;;;;;;;;;;;;;;;7.91;100.00;99369.88;5005014;28;20218;-78
2021/12/28 01:36:12;;;;;;;;;;;;;;;7.78;100.00;99364.53;5006337;28;19988;-78
2021/12/28 01:38:38;;;;;;;;;;;;;;;7.81;100.00;99356.53;5020537;28;19975;-76
2021/12/28 01:41:05;;;;;;;;;;;;;;;7.73;100.00;99364.81;5024619;28;20731;-76
2021/12/28 01:43:31;;;;;;;;;;;;;;;7.63;100.00;99354.97;5038511;28;20044;-77
2021/12/28 01:45:59;;;;;;;;;;;;;;;7.64;100.00;99356.66;5024147;28;19933;-76
2021/12/28 01:48:27;;;;;;;;;;;;;;;7.54;100.00;99365.03;5027053;28;20007;-73
2021/12/28 01:50:54;;;;;;;;;;;;;;;7.49;100.00;99369.72;5021574;28;19958;-71
2021/12/28 01:53:20;;;;;;;;;;;;;;;7.46;100.00;99376.84;5020723;28;19917;-77
2021/12/28 01:55:46;;;;;;;;;;;;;;;7.49;100.00;99369.72;5017413;28;19917;-73
2021/12/28 01:58:12;;;;;;;;;;;;;;;7.46;100.00;99376.84;5025998;28;19921;-72
2021/12/28 02:00:38;;;;;;;;;;;;;;;7.39;100.00;99371.13;5009744;28;19924;-72
2021/12/28 02:03:18;;;;;;;;;;;;;;;7.44;100.00;99374.34;5029196;28;20370;-72
2021/12/28 02:05:44;;;;;;;;;;;;;;;7.52;100.00;99377.34;5015685;28;19940;-77
2021/12/28 02:08:12;;;;;;;;;;;;;;;7.46;100.00;99379.47;5021643;28;19921;-78
2021/12/28 02:10:38;;;;;;;;;;;;;;;7.50;100.00;99371.38;5022800;28;20442;-77
2021/12/28 02:13:05;;;;;;;;;;;;;;;7.61;100.00;99369.94;5024322;28;20015;-77
2021/12/28 02:15:30;;;;;;;;;;;;;;;7.56;100.00;99362.31;5022087;28;19959;-77
2021/12/28 02:17:55;;;;;;;;;;;;;;;7.59;100.00;99359.53;5022007;28;19949;-78
2021/12/28 02:20:21;;;;;;;;;;;;;;;7.67;100.00;99364.31;5021127;28;19948;-73
2021/12/28 02:22:47;;;;;;;;;;;;;;;7.62;100.00;99354.16;5020025;28;19929;-76
2021/12/28 02:25:13;;;;;;;;;;;;;;;7.60;100.00;99349.94;5021526;28;20021;-79
2021/12/28 02:27:38;;;;;;;;;;;;;;;7.58;100.00;99342.16;5051402;28;19916;-79
2021/12/28 02:30:05;;;;;;;;;;;;;;;7.52;100.00;99342.53;5018394;28;19924;-79
2021/12/28 02:32:30;;;;;;;;;;;;;;;7.52;100.00;99335.53;5016856;28;19917;-78
2021/12/28 02:34:56;;;;;;;;;;;;;;;7.48;100.00;99339.28;5025311;28;19948;-78
2021/12/28 02:37:21;;;;;;;;;;;;;;;7.57;100.00;99330.03;5022251;28;19979;-78
2021/12/28 02:39:47;;;;;;;;;;;;;;;7.63;100.00;99326.22;5030174;28;19921;-71
2021/12/28 02:42:14;;;;;;;;;;;;;;;7.66;100.00;99328.66;5015934;28;19924;-72
2021/12/28 02:44:40;;;;;;;;;;;;;;;7.57;100.00;99323.06;5026607;28;19940;-79
2021/12/28 02:47:05;;;;;;;;;;;;;;;7.72;100.00;99333.50;5019600;28;20370;-79
2021/12/28 02:49:30;;;;;;;;;;;;;;;7.74;100.00;99327.28;5022764;28;19918;-74
2021/12/28 02:51:56;;;;;;;;;;;;;;;7.68;100.00;99327.63;5013771;28;19921;-74
2021/12/28 02:54:21;;;;;;;;;;;;;;;7.68;100.00;99326.81;5021406;28;19963;-75
2021/12/28 02:56:46;;;;;;;;;;;;;;;7.76;100.00;99319.34;5027081;28;20012;-72
2021/12/28 02:59:12;;;;;;;;;;;;;;;7.80;100.00;99318.22;5023135;28;19917;-74
2021/12/28 03:01:40;;;;;;;;;;;;;;;7.84;100.00;99311.88;5019386;28;19994;-72
2021/12/28 03:04:08;;;;;;;;;;;;;;;7.91;100.00;99316.75;5017341;28;20373;-72
2021/12/28 03:06:33;;;;;;;;;;;;;;;7.77;100.00;99314.97;5029860;28;19921;-71
2021/12/28 03:08:59;;;;;;;;;;;;;;;7.76;100.00;99315.91;5027118;28;19987;-72
2021/12/28 03:11:26;;;;;;;;;;;;;;;7.77;100.00;99310.56;5023036;28;20375;-73
2021/12/28 03:13:53;;;;;;;;;;;;;;;7.84;100.00;99311.03;5013412;28;20292;-74
2021/12/28 03:16:19;;;;;;;;;;;;;;;7.84;100.00;99306.63;5019323;28;19995;-73
2021/12/28 03:18:45;;;;;;;;;;;;;;;7.78;100.00;99307.03;5016751;28;20268;-74
2021/12/28 03:21:14;;;;;;;;;;;;;;;7.86;100.00;99307.38;5014462;28;19925;-78
2021/12/28 03:23:40;;;;;;;;;;;;;;;7.79;100.00;99300.00;5021546;28;19921;-81
2021/12/28 03:26:06;;;;;;;;;;;;;;;7.74;100.00;99300.28;5016226;28;19920;-78
2021/12/28 03:28:33;;;;;;;;;;;;;;;7.84;100.00;99296.19;5021348;28;19925;-78
2021/12/28 03:31:00;;;;;;;;;;;;;;;7.82;100.00;99298.06;5021974;28;19962;-79
2021/12/28 03:33:27;;;;;;;;;;;;;;;7.80;100.00;99294.69;5014485;28;19929;-78
2021/12/28 03:35:52;;;;;;;;;;;;;;;7.79;100.00;99290.41;5031703;28;19928;-79
2021/12/28 03:38:18;;;;;;;;;;;;;;;7.86;100.00;99283.84;5016545;28;19929;-81
2021/12/28 03:40:44;;;;;;;;;;;;;;;7.77;100.00;99284.41;5023691;28;19917;-81
2021/12/28 03:43:09;;;;;;;;;;;;;;;7.76;100.00;99274.88;5040783;28;19932;-80
2021/12/28 03:45:35;;;;;;;;;;;;;;;7.77;100.00;99270.53;5004877;28;19921;-79
2021/12/28 03:48:00;;;;;;;;;;;;;;;7.83;100.00;99272.75;5021545;28;19918;-78
2021/12/28 03:50:26;;;;;;;;;;;;;;;7.96;100.00;99270.22;5029882;28;19952;-79
2021/12/28 03:53:06;;;;;;;;;;;;;;;7.85;100.00;99271.72;5017229;28;19974;-79
2021/12/28 03:55:32;;;;;;;;;;;;;;;8.00;100.00;99269.09;5013874;28;19973;-79
2021/12/28 03:58:00;;;;;;;;;;;;;;;8.08;100.00;99260.78;5022147;28;19928;-79
2021/12/28 04:00:26;;;;;;;;;;;;;;;7.99;100.00;99256.97;5015069;28;20491;-74
2021/12/28 04:02:51;;;;;;;;;;;;;;;7.96;100.00;99251.91;5022714;28;19921;-72
2021/12/28 04:05:17;;;;;;;;;;;;;;;8.01;100.00;99240.22;5019741;28;19928;-74
2021/12/28 04:07:43;;;;;;;;;;;;;;;7.99;100.00;99234.25;5017247;28;19996;-73
2021/12/28 04:10:10;;;;;;;;;;;;;;;8.01;99.60;99232.38;5020987;28;19921;-74
2021/12/28 04:12:36;;;;;;;;;;;;;;;7.90;100.00;99234.81;5019347;28;19918;-73
2021/12/28 04:15:01;;;;;;;;;;;;;;;8.00;99.96;99242.94;5020468;28;19925;-73
2021/12/28 04:17:27;;;;;;;;;;;;;;;7.96;100.00;99236.22;5014917;28;19917;-74
2021/12/28 04:19:52;;;;;;;;;;;;;;;7.96;100.00;99238.84;5019366;28;19944;-75
2021/12/28 04:22:18;;;;;;;;;;;;;;;7.93;100.00;99244.28;5017769;28;19925;-74
2021/12/28 04:24:43;;;;;;;;;;;;;;;7.93;100.00;99237.25;5026155;28;19921;-74
2021/12/28 04:27:09;;;;;;;;;;;;;;;7.85;100.00;99236.91;5019566;28;20366;-75
2021/12/28 04:29:34;;;;;;;;;;;;;;;7.94;100.00;99235.50;5029971;28;19917;-77
2021/12/28 04:31:59;;;;;;;;;;;;;;;7.99;100.00;99225.56;5018644;28;19917;-75
2021/12/28 04:34:24;;;;;;;;;;;;;;;7.86;100.00;99226.34;5020101;28;20479;-74
2021/12/28 04:36:50;;;;;;;;;;;;;;;7.92;100.00;99216.44;5028141;28;20017;-73
2021/12/28 04:39:16;;;;;;;;;;;;;;;7.91;100.00;99218.19;5016923;28;19921;-73
2021/12/28 04:41:41;;;;;;;;;;;;;;;7.91;100.00;99204.31;5015547;28;20274;-77
2021/12/28 04:44:06;;;;;;;;;;;;;;;7.96;100.00;99204.84;5027361;28;19927;-78
2021/12/28 04:46:32;;;;;;;;;;;;;;;7.91;100.00;99209.53;5025494;28;19917;-78
2021/12/28 04:48:58;;;;;;;;;;;;;;;8.02;100.00;99204.47;5022382;28;19917;-78
2021/12/28 04:51:23;;;;;;;;;;;;;;;7.99;100.00;99204.66;5022550;28;20484;-74
2021/12/28 04:53:50;;;;;;;;;;;;;;;7.93;100.00;99197.22;5021466;28;20465;-73
2021/12/28 04:56:16;;;;;;;;;;;;;;;7.97;100.00;99194.31;5023988;28;19922;-78
2021/12/28 04:58:41;;;;;;;;;;;;;;;7.89;100.00;99207.84;5024288;28;20354;-76
2021/12/28 05:01:06;;;;;;;;;;;;;;;7.93;100.00;99200.66;5032537;28;19988;-72
2021/12/28 05:03:31;;;;;;;;;;;;;;;8.03;100.00;99200.91;5022085;28;19968;-77
2021/12/28 05:05:57;;;;;;;;;;;;;;;8.15;100.00;99184.47;5019707;28;19921;-72
2021/12/28 05:08:22;;;;;;;;;;;;;;;8.09;100.00;99186.63;5040807;28;20366;-78
2021/12/28 05:10:48;;;;;;;;;;;;;;;8.01;100.00;99179.25;5028138;28;19917;-78
2021/12/28 05:13:13;;;;;;;;;;;;;;;7.94;100.00;99177.97;5018479;28;20425;-72
2021/12/28 05:15:42;;;;;;;;;;;;;;;8.00;100.00;99177.56;5027034;28;20269;-80
2021/12/28 05:18:08;;;;;;;;;;;;;;;8.08;100.00;99179.69;5003050;28;19929;-79
2021/12/28 05:20:33;;;;;;;;;;;;;;;8.19;100.00;99172.84;5024116;28;19917;-78
2021/12/28 05:22:59;;;;;;;;;;;;;;;8.26;100.00;99172.47;5020778;28;20311;-78
2021/12/28 05:25:24;;;;;;;;;;;;;;;8.21;100.00;99167.53;5022899;28;19917;-78
2021/12/28 05:27:49;;;;;;;;;;;;;;;8.22;100.00;99163.13;5027114;28;19921;-77
2021/12/28 05:30:15;;;;;;;;;;;;;;;8.25;100.00;99165.56;5020330;28;20157;-76
2021/12/28 05:32:40;;;;;;;;;;;;;;;8.14;100.00;99164.47;5024858;28;19925;-72
2021/12/28 05:35:06;;;;;;;;;;;;;;;8.07;100.00;99163.16;5043994;28;19925;-72
2021/12/28 05:37:32;;;;;;;;;;;;;;;8.09;100.00;99165.69;5019181;28;20508;-72
2021/12/28 05:39:57;;;;;;;;;;;;;;;8.13;100.00;99151.47;5029877;28;19917;-71
2021/12/28 05:42:22;;;;;;;;;;;;;;;8.11;100.00;99150.72;5020938;28;19918;-72
2021/12/28 05:44:48;;;;;;;;;;;;;;;8.19;100.00;99143.25;5020400;28;19975;-73
2021/12/28 05:47:13;;;;;;;;;;;;;;;8.08;100.00;99149.16;5022027;28;19921;-78
2021/12/28 05:49:39;;;;;;;;;;;;;;;8.15;100.00;99147.84;5031367;28;19936;-79
2021/12/28 05:52:04;;;;;;;;;;;;;;;8.11;100.00;99148.97;5004274;28;20377;-79
2021/12/28 05:54:30;;;;;;;;;;;;;;;8.13;100.00;99134.00;4996427;28;19921;-80
2021/12/28 05:56:55;;;;;;;;;;;;;;;8.23;100.00;99130.78;5024928;28;19921;-78
2021/12/28 05:59:20;;;;;;;;;;;;;;;8.02;100.00;99124.22;5017503;28;19926;-79
2021/12/28 06:01:46;;;;;;;;;;;;;;;7.96;100.00;99129.84;5006530;28;19921;-78
2021/12/28 06:04:11;;;;;;;;;;;;;;;7.99;100.00;99132.25;4977687;28;20282;-79
2021/12/28 06:06:37;;;;;;;;;;;;;;;7.96;100.00;99123.78;5010919;28;19921;-80
2021/12/28 06:09:03;;;;;;;;;;;;;;;8.05;100.00;99134.50;5019485;28;19920;-75
2021/12/28 06:11:28;;;;;;;;;;;;;;;8.11;100.00;99132.41;5008243;28;20356;-71
2021/12/28 06:13:54;;;;;;;;;;;;;;;8.06;100.00;99127.47;5000974;28;20017;-73
2021/12/28 06:16:19;;;;;;;;;;;;;;;8.05;100.00;99131.88;5010697;28;19929;-73
2021/12/28 06:18:44;;;;;;;;;;;;;;;8.04;100.00;99135.44;5028891;28;19931;-73
2021/12/28 06:21:10;;;;;;;;;;;;;;;8.12;100.00;99129.72;5024315;28;19927;-72
2021/12/28 06:23:35;;;;;;;;;;;;;;;8.05;100.00;99123.19;5000420;28;19918;-74
2021/12/28 06:26:00;;;;;;;;;;;;;;;8.10;100.00;99128.97;5028863;28;19918;-73
2021/12/28 06:28:26;;;;;;;;;;;;;;;8.07;100.00;99123.09;5025196;28;19999;-73
2021/12/28 06:30:53;;;;;;;;;;;;;;;8.05;100.00;99121.41;5027313;28;20620;-74
2021/12/28 06:33:19;;;;;;;;;;;;;;;8.02;100.00;99112.94;5015670;28;20325;-74
2021/12/28 06:35:44;;;;;;;;;;;;;;;8.07;100.00;99123.09;5017389;28;19918;-74
2021/12/28 06:38:09;;;;;;;;;;;;;;;8.21;100.00;99112.59;5022368;28;19925;-74
2021/12/28 06:40:34;;;;;;;;;;;;;;;8.16;100.00;99110.25;5037349;28;20020;-72
2021/12/28 06:43:00;;;;;;;;;;;;;;;8.01;100.00;99111.25;5044717;28;19969;-79
2021/12/28 06:45:26;;;;;;;;;;;;;;;8.19;100.00;99102.22;5053558;28;20333;-79
2021/12/28 06:47:51;;;;;;;;;;;;;;;8.14;100.00;99103.44;5044002;28;19921;-80
2021/12/28 06:50:17;;;;;;;;;;;;;;;8.04;100.00;99092.75;5031854;28;19921;-79
2021/12/28 06:52:42;;;;;;;;;;;;;;;8.09;100.00;99088.06;5045786;28;19917;-80
2021/12/28 06:55:08;;;;;;;;;;;;;;;8.13;100.00;99088.69;5035919;28;20008;-80
2021/12/28 06:57:33;;;;;;;;;;;;;;;8.07;100.00;99079.47;5051881;28;19921;-80
2021/12/28 06:59:59;;;;;;;;;;;;;;;8.11;100.00;99088.78;5036495;28;20381;-80
2021/12/28 07:02:24;;;;;;;;;;;;;;;8.15;100.00;99087.66;5041488;28;19951;-79
2021/12/28 07:04:50;;;;;;;;;;;;;;;8.13;100.00;99081.69;5038523;28;19970;-80
2021/12/28 07:07:16;;;;;;;;;;;;;;;8.17;100.00;99070.06;5041864;28;19956;-79
2021/12/28 07:09:41;;;;;;;;;;;;;;;8.11;100.00;99080.94;5048763;28;20408;-80
2021/12/28 07:12:07;;;;;;;;;;;;;;;8.14;100.00;99078.13;5042245;28;19997;-79
2021/12/28 07:14:32;;;;;;;;;;;;;;;8.24;100.00;99070.50;5047883;28;20233;-79
2021/12/28 07:16:58;;;;;;;;;;;;;;;8.17;100.00;99072.69;5037983;28;19921;-78
2021/12/28 07:19:24;;;;;;;;;;;;;;;8.21;100.00;99062.88;5034533;28;19967;-71
2021/12/28 07:21:49;;;;;;;;;;;;;;;8.16;100.00;99068.38;5044736;28;19920;-77
2021/12/28 07:24:14;;;;;;;;;;;;;;;8.27;100.00;99069.50;5036208;28;19917;-79
2021/12/28 07:26:40;;;;;;;;;;;;;;;8.24;100.00;99070.50;5034648;28;19917;-78
2021/12/28 07:29:05;;;;;;;;;;;;;;;8.13;100.00;99066.00;5051197;28;19944;-75
2021/12/28 07:31:31;;;;;;;;;;;;;;;8.12;100.00;99068.69;5036516;28;19967;-74
2021/12/28 07:33:57;;;;;;;;;;;;;;;8.09;100.00;99071.53;5047940;28;19932;-74
2021/12/28 07:36:22;;;;;;;;;;;;;;;8.17;100.00;99062.22;5049295;28;19932;-78
2021/12/28 07:38:47;;;;;;;;;;;;;;;8.03;100.00;99070.97;5059938;28;19962;-71
2021/12/28 07:41:13;;;;;;;;;;;;;;;8.07;100.00;99062.94;5039685;28;20030;-72
2021/12/28 07:43:39;;;;;;;;;;;;;;;8.02;100.00;99060.63;5039920;28;19913;-72
2021/12/28 07:46:04;;;;;;;;;;;;;;;8.04;100.00;99050.91;5031003;28;20001;-73
2021/12/28 07:48:29;;;;;;;;;;;;;;;8.06;100.00;99043.78;5043667;28;19924;-79
2021/12/28 07:50:55;;;;;;;;;;;;;;;8.08;100.00;99038.47;5042831;28;19928;-72
2021/12/28 07:53:20;;;;;;;;;;;;;;;7.99;100.00;99048.56;5039047;28;19929;-73
2021/12/28 07:55:46;;;;;;;;;;;;;;;7.96;100.00;99048.78;5035978;28;19918;-72
2021/12/28 07:58:11;;;;;;;;;;;;;;;7.96;100.00;99048.78;5037905;28;20734;-78
2021/12/28 08:00:36;;;;;;;;;;;;;;;8.01;100.00;99041.47;5040169;28;19960;-79
2021/12/28 08:03:04;;;;;;;;;;;;;;;8.00;100.00;99037.16;5022082;28;19974;-80
2021/12/28 08:05:30;;;;;;;;;;;;;;;8.03;100.00;99034.38;5046759;28;19925;-78
2021/12/28 08:07:55;;;;;;;;;;;;;;;8.03;100.00;99029.13;5040798;28;19924;-77
2021/12/28 08:10:22;;;;;;;;;;;;;;;8.08;100.00;99030.63;5036810;28;19921;-78
2021/12/28 08:12:47;;;;;;;;;;;;;;;8.07;100.00;99032.38;5038437;28;19967;-77
2021/12/28 08:15:13;;;;;;;;;;;;;;;8.22;100.00;99030.53;5042352;28;20285;-75
2021/12/28 08:17:38;;;;;;;;;;;;;;;8.10;100.00;99034.81;5053103;28;19925;-75
2021/12/28 08:20:05;;;;;;;;;;;;;;;8.11;100.00;99031.25;5041780;28;20004;-74
2021/12/28 08:22:30;;;;;;;;;;;;;;;8.16;100.00;99026.53;5043655;28;19995;-75
2021/12/28 08:24:56;;;;;;;;;;;;;;;8.15;100.00;99034.50;5050264;28;20360;-75
2021/12/28 08:27:21;;;;;;;;;;;;;;;8.20;100.00;99025.41;5053911;28;19921;-75
2021/12/28 08:29:46;;;;;;;;;;;;;;;8.14;100.00;99023.22;5054103;28;19921;-76
2021/12/28 08:32:11;;;;;;;;;;;;;;;8.24;100.00;99019.97;5041404;28;19932;-76
2021/12/28 08:34:37;;;;;;;;;;;;;;;8.16;100.00;99015.25;5052209;28;20011;-76
2021/12/28 08:37:02;;;;;;;;;;;;;;;8.29;100.00;99023.09;5047524;28;19925;-78
2021/12/28 08:39:27;;;;;;;;;;;;;;;8.32;100.00;99015.88;5033252;28;20267;-78
2021/12/28 08:41:53;;;;;;;;;;;;;;;8.38;100.00;99011.19;5034908;28;19952;-79
2021/12/28 08:44:18;;;;;;;;;;;;;;;8.29;100.00;99010.03;5044490;28;19964;-80
2021/12/28 08:46:45;;;;;;;;;;;;;;;8.34;100.00;99007.97;5042668;28;19924;-77
2021/12/28 08:49:10;;;;;;;;;;;;;;;8.30;100.00;99003.84;5044429;28;20446;-78
2021/12/28 08:51:36;;;;;;;;;;;;;;;8.33;100.00;99004.47;5058255;28;19921;-78
2021/12/28 08:54:02;;;;;;;;;;;;;;;8.34;100.00;99005.34;5017921;28;19925;-75
2021/12/28 08:56:27;;;;;;;;;;;;;;;8.26;100.00;98999.78;5049027;28;19921;-75
2021/12/28 08:58:52;;;;;;;;;;;;;;;8.28;100.00;99000.50;5053718;28;19917;-74
2021/12/28 09:01:18;;;;;;;;;;;;;;;8.28;100.00;98998.75;5041758;28;19944;-76
2021/12/28 09:03:43;;;;;;;;;;;;;;;8.29;100.00;98991.72;5051363;28;20004;-75
2021/12/28 09:06:08;;;;;;;;;;;;;;;8.26;100.00;99000.63;5050657;28;19921;-75
2021/12/28 09:08:34;;;;;;;;;;;;;;;8.24;100.00;98999.06;5052431;28;19924;-78
2021/12/28 09:10:59;;;;;;;;;;;;;;;8.32;100.00;98989.72;5047053;28;19974;-80
2021/12/28 09:13:24;;;;;;;;;;;;;;;8.32;100.00;98983.66;5042917;28;20633;-79
2021/12/28 09:15:50;;;;;;;;;;;;;;;8.43;100.00;98977.72;5044944;28;20485;-79
2021/12/28 09:18:16;;;;;;;;;;;;;;;8.37;100.00;98973.75;5026318;28;19921;-78
2021/12/28 09:20:41;;;;;;;;;;;;;;;8.46;100.00;98962.63;5041369;28;19927;-79
2021/12/28 09:23:07;;;;;;;;;;;;;;;8.45;100.00;98960.97;5047410;28;19920;-79
2021/12/28 09:25:32;;;;;;;;;;;;;;;8.47;100.00;98963.47;5058935;28;19985;-79
2021/12/28 09:27:57;;;;;;;;;;;;;;;8.45;100.00;98963.56;5047842;28;20441;-79
2021/12/28 09:30:23;;;;;;;;;;;;;;;8.40;100.00;98965.66;5044797;28;19920;-79
2021/12/28 09:32:49;;;;;;;;;;;;;;;8.44;100.00;98964.53;5044379;28;20035;-78
2021/12/28 09:35:14;;;;;;;;;;;;;;;8.39;100.00;98971.84;5027608;28;19925;-79
2021/12/28 09:37:40;;;;;;;;;;;;;;;8.37;100.00;98960.66;5044068;28;19997;-78
2021/12/28 09:40:08;;;;;;;;;;;;;;;8.42;100.00;98963.78;5043229;28;19921;-79
2021/12/28 09:42:33;;;;;;;;;;;;;;;8.43;100.00;98962.03;5049170;28;19921;-80
2021/12/28 09:44:59;;;;;;;;;;;;;;;8.46;100.00;98956.56;5051606;28;20400;-73
2021/12/28 09:47:24;;;;;;;;;;;;;;;8.42;100.00;98950.69;5047934;28;19917;-74
2021/12/28 09:49:50;;;;;;;;;;;;;;;8.47;100.00;98947.75;5041150;28;20007;-78
2021/12/28 09:52:16;;;;;;;;;;;;;;;8.43;100.00;98941.91;5040781;28;20062;-79
2021/12/28 09:54:41;;;;;;;;;;;;;;;8.61;100.00;98934.59;5048745;28;20394;-74
2021/12/28 09:57:07;;;;;;;;;;;;;;;8.53;100.00;98942.16;5026005;28;20011;-75
2021/12/28 09:59:32;;;;;;;;;;;;;;;8.60;100.00;98922.44;5047105;28;20298;-73
2021/12/28 10:04:54;;;;;;;;;;;;;;;8.74;100.00;98921.47;5044218;28;19925;-74
2021/12/28 10:07:35;;;;;;;;;;;;;;;8.73;100.00;98921.59;5039348;28;19917;-78
2021/12/28 10:10:00;;;;;;;;;;;;;;;8.74;100.00;98921.47;5044130;28;20368;-79
2021/12/28 10:12:27;;;;;;;;;;;;;;;8.80;100.00;98910.59;5045195;28;19920;-79
2021/12/28 10:15:09;;;;;;;;;;;;;;;8.78;100.00;98907.25;5046720;28;19924;-78
2021/12/28 10:17:35;;;;;;;;;;;;;;;8.82;100.00;98907.84;5041551;28;19963;-79
2021/12/28 10:20:01;;;;;;;;;;;;;;;8.73;100.00;98898.84;5029626;28;20228;-78
2021/12/28 10:22:32;;;;;;;;;;;;;;;8.75;100.00;98904.81;5041398;28;20551;-79
2021/12/28 10:25:14;;;;;;;;;;;;;;;8.74;100.00;98897.91;5023936;28;19943;-79
2021/12/28 10:27:40;;;;;;;;;;;;;;;8.67;100.00;98891.44;5035091;28;19917;-75
2021/12/28 10:30:21;;;;;;;;;;;;;;;8.66;100.00;98885.34;5026936;28;20321;-73
2021/12/28 10:32:48;;;;;;;;;;;;;;;8.81;100.00;98878.22;5028773;28;19921;-79
2021/12/28 10:35:16;;;;;;;;;;;;;;;8.75;100.00;98868.16;5019540;28;19929;-79
2021/12/28 10:37:45;;;;;;;;;;;;;;;8.74;100.00;98866.50;5029158;28;20568;-79
2021/12/28 10:40:11;;;;;;;;;;;;;;;8.70;100.00;98867.69;5018838;28;20024;-78
2021/12/28 10:42:52;;;;;;;;;;;;;;;8.77;100.00;98854.97;5029958;28;19921;-79
2021/12/28 10:45:20;;;;;;;;;;;;;;;8.68;100.00;98851.25;5024160;28;19928;-79
2021/12/28 10:47:46;;;;;;;;;;;;;;;8.71;100.00;98842.31;5023782;28;20016;-79
2021/12/28 10:50:27;;;;;;;;;;;;;;;8.70;100.00;98844.13;5023599;28;19921;-78
2021/12/28 10:53:10;;;;;;;;;;;;;;;8.76;100.00;98833.19;5026853;28;20259;-78
2021/12/28 10:55:36;;;;;;;;;;;;;;;8.72;100.00;98830.91;5024479;28;19929;-78
2021/12/28 10:58:03;;;;;;;;;;;;;;;8.75;100.00;98830.69;5026167;28;20024;-78
2021/12/28 11:00:43;;;;;;;;;;;;;;;8.75;100.00;98825.47;5030512;28;20378;-78
2021/12/28 11:03:26;;;;;;;;;;;;;;;8.71;100.00;98824.81;5022079;28;20040;-78
2021/12/28 11:05:52;;;;;;;;;;;;;;;8.72;100.00;98821.25;5013268;28;19921;-78
2021/12/28 11:08:17;;;;;;;;;;;;;;;8.69;100.00;98818.03;5023472;28;19940;-79
2021/12/28 11:10:45;;;;;;;;;;;;;;;8.73;100.00;98809.84;5040972;28;20369;-78
2021/12/28 11:13:12;;;;;;;;;;;;;;;8.69;100.00;98811.03;5018870;28;20413;-79
2021/12/28 11:15:40;;;;;;;;;;;;;;;8.66;100.00;98809.44;5020089;28;19921;-79
2021/12/28 11:18:21;;;;;;;;;;;;;;;8.65;100.00;98797.28;5028006;28;19948;-80
2021/12/28 11:20:47;;;;;;;;;;;;;;;8.61;100.00;98797.63;5033009;28;19921;-77
2021/12/28 11:23:15;;;;;;;;;;;;;;;8.62;100.00;98800.16;5022850;28;19925;-78
2021/12/28 11:25:40;;;;;;;;;;;;;;;8.57;100.00;98802.25;5016650;28;20020;-78
2021/12/28 11:28:21;;;;;;;;;;;;;;;8.52;100.00;98801.75;5018996;28;20399;-79
2021/12/28 11:31:02;;;;;;;;;;;;;;;8.50;100.00;98803.66;5016258;28;20298;-79
2021/12/28 11:33:41;;;;;;;;;;;;;;;8.45;100.00;98798.72;5020069;28;19933;-79
2021/12/28 11:36:06;;;;;;;;;;;;;;;8.45;100.00;98790.00;5024697;28;19921;-77
2021/12/28 11:38:32;;;;;;;;;;;;;;;8.45;100.00;98788.25;5023281;28;20291;-79
2021/12/28 11:40:57;;;;;;;;;;;;;;;8.47;100.00;98781.16;5054056;28;19983;-79
2021/12/28 11:43:23;;;;;;;;;;;;;;;8.47;100.00;98785.50;5021762;28;20745;-79
2021/12/28 11:45:48;;;;;;;;;;;;;;;8.45;100.00;98785.63;5027491;28;20398;-79
2021/12/28 11:48:13;;;;;;;;;;;;;;;8.43;100.00;98784.88;5019208;28;19917;-79
2021/12/28 11:50:39;;;;;;;;;;;;;;;8.45;100.00;98777.78;5046148;28;19917;-79
2021/12/28 11:53:04;;;;;;;;;;;;;;;8.40;100.00;98779.03;5042002;28;20026;-79
2021/12/28 11:55:29;;;;;;;;;;;;;;;8.38;100.00;98775.69;5051155;28;20313;-78
2021/12/28 11:57:55;;;;;;;;;;;;;;;8.42;100.00;98777.16;5051708;28;19978;-79
2021/12/28 12:00:22;;;;;;;;;;;;;;;8.38;100.00;98775.69;5045755;28;19929;-79
2021/12/28 12:02:51;;;;;;;;;;;;;;;8.34;100.00;98772.47;5036294;28;19917;-79
2021/12/28 12:05:16;;;;;;;;;;;;;;;8.35;100.00;98769.72;5036423;28;20378;-78
2021/12/28 12:07:42;;;;;;;;;;;;;;;8.34;100.00;98781.13;5041309;28;19944;-78
2021/12/28 12:10:09;;;;;;;;;;;;;;;8.33;100.00;98768.19;5036097;28;20641;-78
2021/12/28 12:12:49;;;;;;;;;;;;;;;8.20;100.00;98797.81;5040679;28;19921;-78
2021/12/28 12:15:16;;;;;;;;;;;;;;;8.03;100.00;98804.22;5022567;28;20425;-77
2021/12/28 12:20:29;;;;;;;;;;;;;;;7.85;100.00;98819.41;5035577;28;20006;-77
2021/12/28 12:23:07;;;;;;;;;;;;;;;7.82;100.00;98806.56;5036313;28;19921;-76
2021/12/28 12:25:49;;;;;;;;;;;;;;;7.82;100.00;98811.78;5028768;28;19931;-77
2021/12/28 12:28:18;;;;;;;;;;;;;;;7.79;100.00;98814.59;5039855;28;19991;-78
2021/12/28 12:30:59;;;;;;;;;;;;;;;7.80;100.00;98803.19;5038993;28;19924;-79
2021/12/28 12:33:33;;;;;;;;;;;;;;;7.72;100.00;98795.88;5011337;28;19926;-79
2021/12/28 12:35:59;;;;;;;;;;;;;;;7.74;100.00;98809.69;5012249;28;19917;-78
2021/12/28 12:38:25;;;;;;;;;;;;;;;7.76;100.00;98808.75;5014129;28;19926;-78
2021/12/28 12:41:06;;;;;;;;;;;;;;;7.74;100.00;98808.84;4999524;28;21043;-79
2021/12/28 12:43:46;;;;;;;;;;;;;;;7.73;100.00;98800.16;5012293;28;20360;-79
2021/12/28 12:46:22;;;;;;;;;;;;;;;7.78;100.00;98804.22;5023583;28;19925;-79
2021/12/28 12:48:47;;;;;;;;;;;;;;;7.79;100.00;98806.75;5028660;28;19925;-79
2021/12/28 12:51:28;;;;;;;;;;;;;;;7.86;100.00;98802.78;4999400;28;19940;-77
2021/12/28 12:54:12;;;;;;;;;;;;;;;7.87;100.00;98801.81;5003275;28;19966;-78